DRI-NNSC Building Weather observations

Data are for 10 minute period ending at time listed.
 Day   Time   Solar   Ave.   Ave.  Ave.  Vector  Max.   Baro.   Total    
  of    of     Rad.   Air    Rel.  Wind   Wind   Wind  Press.  Precip.   
Year   Day            Temp.  Hum.  Speed  Dir.   Gust                    
2014   (PST)  Kw/m2    F      %     mph   deg.    mph    mb.     in.     
-------------------------------------------------------------------------
 258    5:50   0.01   60.4    36    0.8    54      3   850.5    0.00 
 258    6:00   0.01   60.2    37    0.8   206      2   850.7    0.00 
 258    6:10   0.01   60.0    37    0.2   232      2   850.7    0.00 
 258    6:20   0.01   60.5    36    0.9    80      2   850.7    0.00 
 258    6:30   0.02   60.1    37    1.2   113      2   850.8    0.00 
 258    6:40   0.10   61.1    36    0.1   285      1   850.8    0.00 
 258    6:50   0.13   62.5    35    0.5   320      2   850.8    0.00 
 258    7:00   0.16   64.2    33    0.4   322      1   850.8    0.00 
 258    7:10   0.20   66.1    31    0.1    68      1   850.8    0.00 
 258    7:20   0.23   67.8    30    0.7   193      1   850.9    0.00 
 258    7:30   0.26   67.6    30    0.5   194      2   850.9    0.00 
 258    7:40   0.29   67.7    30    0.7   161      2   850.9    0.00 
 258    7:50   0.33   68.1    30    2.0   122      4   850.9    0.00 
 258    8:00   0.35   67.9    30    2.2   139      4   850.9    0.00 
 258    8:10   0.38   67.5    32    2.8   147      5   850.9    0.00 
 258    8:20   0.42   67.7    32    2.0   156      4   850.8    0.00 
 258    8:30   0.44   69.3    31    1.3   174      3   850.8    0.00 
 258    8:40   0.47   69.7    30    1.7   156      3   850.8    0.00 
 258    8:50   0.50   70.4    30    1.6   171      4   850.8    0.00 
 258    9:00   0.50   71.2    29    0.7   156      3   850.7    0.00 
 258    9:10   0.55   73.2    27    1.6   163      5   850.6    0.00 
 258    9:20   0.52   73.9    27    1.5   166      3   850.7    0.00 
 258    9:30   0.41   74.7    26    1.9   164      4   850.6    0.00 
 258    9:40   0.38   74.5    27    1.7   208      4   850.6    0.00 
 258    9:50   0.47   74.9    26    1.1   219      4   850.6    0.00 
 258   10:00   0.72   76.1    25    1.3   227      4   850.6    0.00 
 258   10:10   0.81   79.2    24    1.0   198      4   850.6    0.00 
 258   10:20   0.72   78.9    25    2.0   243      6   850.5    0.00 
 258   10:30   0.88   79.4    25    2.7   202      6   850.4    0.00 
 258   10:40   0.87   80.4    25    5.3   201     12   850.2    0.00 
 258   10:50   0.87   81.9    23    3.8   174      9   850.2    0.00 
 258   11:00   0.46   80.2    25    4.4   189      8   850.1    0.00 
 258   11:10   0.63   80.6    25    4.1   214      9   850.0    0.00 
 258   11:20   0.46   81.5    24    2.1   236      9   849.9    0.00 
 258   11:30   0.64   81.4    25    5.6   238     10   849.8    0.00 
 258   11:40   0.40   80.8    25    3.1   275      9   849.6    0.00 
 258   11:50   0.50   81.7    25    3.6   235      9   849.5    0.00 
 258   12:00   0.49   82.2    24    5.9   281     15   849.3    0.00 
 258   12:10   0.39   82.0    24    4.4   250     12   849.3    0.00 
 258   12:20   0.38   82.4    24    5.4   254     15   849.2    0.00 
 258   12:30   0.27   82.0    24    3.4   320      8   849.1    0.00 
 258   12:40   0.27   82.2    24    3.3   232      8   849.0    0.00 
 258   12:50   0.39   82.7    24    4.3   295      8   848.8    0.00 
 258   13:00   0.84   84.7    22    3.3   260     10   848.7    0.00 
 258   13:10   0.79   86.6    18   14.8   202     33   848.5    0.00 
 258   13:20   0.57   86.7    17   14.5   194     29   848.4    0.00 
 258   13:30   0.60   85.9    17   14.0   202     29   848.4    0.00 
 258   13:40   0.74   87.2    16   13.0   191     24   848.2    0.00 
 258   13:50   0.68   88.4    16   12.9   185     25   848.0    0.00 
 258   14:00   0.49   86.9    16   10.9   188     23   848.0    0.00 
 258   14:10   0.54   87.4    16   11.3   174     25   847.9    0.00 
 258   14:20   0.50   86.0    17   13.8   215     26   847.9    0.00 
 258   14:30   0.54   86.1    18   11.2   210     23   847.9    0.00 
 258   14:40   0.52   86.1    19   11.3   240     24   847.8    0.00 
 258   14:50   0.55   84.3    22   14.6   238     25   847.8    0.00 
 258   15:00   0.55   84.6    21   12.4   242     22   847.9    0.00 
 258   15:10   0.47   84.3    22   12.5   249     22   847.8    0.00 
 258   15:20   0.47   83.8    22   13.0   251     23   847.8    0.00 
 258   15:30   0.43   84.0    22   12.0   246     20   847.7    0.00 
 258   15:40   0.40   83.6    22   13.3   255     22   847.7    0.00 
 258   15:50   0.35   83.4    22   12.9   244     26   847.7    0.00 
 258   16:00   0.32   83.1    22   11.6   248     21   847.6    0.00 
 258   16:10   0.28   82.8    22   12.5   251     24   847.6    0.00 
 258   16:20   0.24   82.3    23   12.1   255     24   847.6    0.00 
 258   16:30   0.22   82.0    23   10.8   251     21   847.7    0.00 
 258   16:40   0.20   81.7    23   11.6   251     24   847.7    0.00 
 258   16:50   0.16   81.3    23   12.7   256     28   847.7    0.00 
 258   17:00   0.13   80.7    24   12.8   261     24   847.8    0.00 
 258   17:10   0.11   80.4    24   11.6   247     22   847.8    0.00 
 258   17:20   0.10   79.9    24   12.5   253     25   847.9    0.00 
 258   17:30   0.07   79.4    24   12.1   253     21   847.9    0.00 
 258   17:40   0.05   78.9    25    9.8   250     19   847.9    0.00 
 258   17:50   0.03   78.3    26   10.1   242     20   847.9    0.00 
 258   18:00   0.01   77.8    26   11.1   251     23   847.9    0.00 
 258   18:10   0.01   77.4    26    9.4   247     22   847.9    0.00 
 258   18:20   0.00   77.0    26    9.8   257     18   848.0    0.00 
 258   18:30   0.00   76.6    27    7.8   253     15   848.2    0.00 
 258   18:40   0.00   76.1    28    9.2   253     18   848.2    0.00 
 258   18:50   0.00   75.7    28   10.8   255     19   848.3    0.00 
 258   19:00   0.00   75.2    29   10.4   264     18   848.5    0.00 
 258   19:10   0.00   74.9    29   10.3   263     19   848.6    0.00 
 258   19:20   0.00   74.5    30   10.7   261     17   848.7    0.00 
 258   19:30   0.00   74.1    30    9.4   268     17   848.8    0.00 
 258   19:40   0.00   73.9    31    7.9   273     13   848.9    0.00 
 258   19:50   0.00   73.8    31    9.7   270     17   848.9    0.00 
 258   20:00   0.00   73.7    31    9.4   268     18   848.9    0.00 
 258   20:10   0.00   73.6    31   10.4   266     18   848.9    0.00 
 258   20:20   0.00   73.4    32    7.9   270     15   849.0    0.00 
 258   20:30   0.00   73.1    32    7.0   272     12   849.1    0.00 
 258   20:40   0.00   73.0    32    7.2   280     14   849.1    0.00 
 258   20:50   0.00   72.8    32    5.2   292     10   849.1    0.00 
 258   21:00   0.00   72.6    32    4.8   294      9   849.1    0.00 
 258   21:10   0.00   72.5    32    3.8   290      6   849.2    0.00 
 258   21:20   0.00   72.9    31    4.0   288      7   849.2    0.00 
 258   21:30   0.00   72.7    31    3.0   287      5   849.2    0.00 
 258   21:40   0.00   72.2    31    2.5     5      5   849.3    0.00 
 258   21:50   0.00   70.9    33    3.8    50      6   849.3    0.00 
 258   22:00   0.00   71.0    33    4.1    55      5   849.4    0.00 
 258   22:10   0.00   70.4    33    4.9    34      6   849.4    0.00 
 258   22:20   0.00   70.5    33    4.4    33      6   849.3    0.00 
 258   22:30   0.00   70.6    33    4.3    21      6   849.4    0.00 
 258   22:40   0.00   72.1    31    5.6    12      7   849.4    0.00 
 258   22:50   0.00   71.5    32    3.8    17      6   849.4    0.00 
 258   23:00   0.00   70.8    32    3.1    51      6   849.4    0.00 
 258   23:10   0.00   68.7    35    4.9    53      7   849.4    0.00 
 258   23:20   0.00   70.2    33    4.3    18      7   849.4    0.00 
 258   23:30   0.00   70.1    34    3.0    12      6   849.4    0.00 
 258   23:40   0.00   70.4    33    4.4    24      7   849.3    0.00 
 258   23:50   0.00   70.8    33    3.2    19      6   849.3    0.00 
 259    0:00   0.00   69.5    34    1.3    50      4   849.4    0.00 
 259    0:10   0.00   69.4    34    2.7     3      8   849.4    0.00 
 259    0:20   0.00   70.5    33    3.0    32      5   849.4    0.00 
 259    0:30   0.00   70.5    33    3.6   321     12   849.4    0.00 
 259    0:40   0.00   69.5    34    6.2   356     10   849.4    0.00 
 259    0:50   0.00   69.6    34    4.7   320     10   849.5    0.00 
 259    1:00   0.00   69.1    35    6.1   353      9   849.5    0.00 
 259    1:10   0.00   71.4    32    7.4     5      9   849.4    0.00 
 259    1:20   0.00   70.3    33    4.7   341      7   849.5    0.00 
 259    1:30   0.00   70.2    34    2.9    79      9   849.4    0.00 
 259    1:40   0.00   68.0    37    1.2   132      4   849.3    0.00 
 259    1:50   0.00   69.0    36    2.1    93      9   849.3    0.00 
 259    2:00   0.00   68.4    36    1.3   287      5   849.3    0.00 
 259    2:10   0.00   66.6    39    0.8   122      2   849.4    0.00 
 259    2:20   0.00   66.9    38    1.4   323      3   849.4    0.00 
 259    2:30   0.00   69.1    36    3.4    35      5   849.3    0.00 
 259    2:40   0.00   68.8    36    1.3    23      3   849.3    0.00 
 259    2:50   0.00   67.5    38    2.3    14      4   849.2    0.00 
 259    3:00   0.00   67.5    38    1.9    59      3   849.1    0.00 
 259    3:10   0.00   66.8    39    1.3   247      4   849.1    0.00 
 259    3:20   0.00   65.4    41    1.9   308      3   849.1    0.00 
 259    3:30   0.00   66.2    40    2.4   281      8   849.1    0.00 
 259    3:40   0.00   66.8    39    2.9   228      8   849.1    0.00 
 259    3:50   0.00   66.5    40    1.3   256      6   849.1    0.00 
 259    4:00   0.00   64.5    42    3.6   334      7   849.1    0.00 
 259    4:10   0.00   66.8    39    2.5     2      6   849.1    0.00 
 259    4:20   0.00   68.1    38    3.5   281      7   849.2    0.00 
 259    4:30   0.00   66.3    40    2.2   324      6   849.2    0.00 
 259    4:40   0.00   66.4    40    1.2    28      6   849.3    0.00 
 259    4:50   0.00   67.6    38    2.9    49      4   849.2    0.00 
 259    5:00   0.00   66.4    40    2.1   111      6   849.3    0.00 
 259    5:10   0.00   67.4    38    3.3    49      4   849.4    0.00 
 259    5:20   0.00   67.9    38    2.6    68      4   849.5    0.00 
 259    5:30   0.00   67.3    38    2.9    46      4   849.6    0.00 
 259    5:40   0.00   66.2    40    1.8    58      3   849.6    0.00 

Return to NNSC graphs page.


Western Regional Climate Center,wrcc@dri.edu